sensor_id;sensor_type;location;lat;lon;timestamp;pressure;altitude;pressure_sealevel;temperature;humidity
59588;BME280;45412;54.472;18.464;2023-02-03T00:01:10;100245.25;;;-2.87;93.87
59588;BME280;45412;54.472;18.464;2023-02-03T00:03:58;100240.77;;;-2.89;93.91
59588;BME280;45412;54.472;18.464;2023-02-03T00:06:47;100242.05;;;-2.92;94.04
59588;BME280;45412;54.472;18.464;2023-02-03T00:09:35;100239.01;;;-2.96;93.89
59588;BME280;45412;54.472;18.464;2023-02-03T00:12:23;100241.13;;;-2.99;94.23
59588;BME280;45412;54.472;18.464;2023-02-03T00:15:11;100232.38;;;-3.04;94.42
59588;BME280;45412;54.472;18.464;2023-02-03T00:17:59;100238.55;;;-3.01;94.59
59588;BME280;45412;54.472;18.464;2023-02-03T00:20:46;100230.42;;;-3.02;94.72
59588;BME280;45412;54.472;18.464;2023-02-03T00:23:35;100230.98;;;-3.05;94.72
59588;BME280;45412;54.472;18.464;2023-02-03T00:26:23;100224.60;;;-3.07;94.60
59588;BME280;45412;54.472;18.464;2023-02-03T00:29:13;100223.25;;;-3.08;95.28
59588;BME280;45412;54.472;18.464;2023-02-03T00:32:01;100228.61;;;-3.07;95.45
59588;BME280;45412;54.472;18.464;2023-02-03T00:34:50;100229.18;;;-3.09;95.31
59588;BME280;45412;54.472;18.464;2023-02-03T00:37:38;100221.77;;;-3.13;95.35
59588;BME280;45412;54.472;18.464;2023-02-03T00:40:27;100209.15;;;-3.15;95.49
59588;BME280;45412;54.472;18.464;2023-02-03T00:43:16;100204.34;;;-3.17;95.57
59588;BME280;45412;54.472;18.464;2023-02-03T00:46:04;100204.54;;;-3.20;95.64
59588;BME280;45412;54.472;18.464;2023-02-03T00:48:52;100194.58;;;-3.25;95.66
59588;BME280;45412;54.472;18.464;2023-02-03T00:51:41;100188.99;;;-3.23;96.03
59588;BME280;45412;54.472;18.464;2023-02-03T00:54:30;100185.73;;;-3.25;96.11
59588;BME280;45412;54.472;18.464;2023-02-03T00:57:20;100178.09;;;-3.26;96.24
59588;BME280;45412;54.472;18.464;2023-02-03T01:00:09;100172.26;;;-3.28;96.45
59588;BME280;45412;54.472;18.464;2023-02-03T01:02:58;100174.10;;;-3.26;96.65
59588;BME280;45412;54.472;18.464;2023-02-03T01:05:46;100167.32;;;-3.25;96.91
59588;BME280;45412;54.472;18.464;2023-02-03T01:08:34;100157.23;;;-3.23;96.88
59588;BME280;45412;54.472;18.464;2023-02-03T01:11:25;100150.62;;;-3.22;96.81
59588;BME280;45412;54.472;18.464;2023-02-03T01:14:13;100140.20;;;-3.21;97.15
59588;BME280;45412;54.472;18.464;2023-02-03T01:17:01;100132.23;;;-3.23;97.02
59588;BME280;45412;54.472;18.464;2023-02-03T01:19:52;100135.90;;;-3.24;96.95
59588;BME280;45412;54.472;18.464;2023-02-03T01:22:41;100134.15;;;-3.23;97.17
59588;BME280;45412;54.472;18.464;2023-02-03T01:25:29;100132.77;;;-3.23;97.29
59588;BME280;45412;54.472;18.464;2023-02-03T01:28:17;100125.13;;;-3.24;97.38
59588;BME280;45412;54.472;18.464;2023-02-03T01:31:14;100135.17;;;-3.22;97.60
59588;BME280;45412;54.472;18.464;2023-02-03T01:34:02;100136.73;;;-3.22;97.98
59588;BME280;45412;54.472;18.464;2023-02-03T01:36:51;100137.92;;;-3.21;98.07
59588;BME280;45412;54.472;18.464;2023-02-03T01:39:39;100133.05;;;-3.20;97.94
59588;BME280;45412;54.472;18.464;2023-02-03T01:42:32;100127.30;;;-3.19;98.30
59588;BME280;45412;54.472;18.464;2023-02-03T01:45:20;100121.95;;;-3.21;98.25
59588;BME280;45412;54.472;18.464;2023-02-03T01:48:08;100124.95;;;-3.14;98.13
59588;BME280;45412;54.472;18.464;2023-02-03T01:50:56;100118.33;;;-3.14;98.12
59588;BME280;45412;54.472;18.464;2023-02-03T01:53:46;100118.54;;;-3.15;98.50
59588;BME280;45412;54.472;18.464;2023-02-03T01:56:38;100114.37;;;-3.15;98.39
59588;BME280;45412;54.472;18.464;2023-02-03T01:59:29;100107.25;;;-3.15;98.09
59588;BME280;45412;54.472;18.464;2023-02-03T02:02:18;100102.09;;;-3.17;98.07
59588;BME280;45412;54.472;18.464;2023-02-03T02:05:33;100095.73;;;-3.20;98.45
59588;BME280;45412;54.472;18.464;2023-02-03T02:08:22;100093.00;;;-3.22;98.36
59588;BME280;45412;54.472;18.464;2023-02-03T02:11:11;100087.45;;;-3.23;98.46
59588;BME280;45412;54.472;18.464;2023-02-03T02:14:01;100083.09;;;-3.21;98.54
59588;BME280;45412;54.472;18.464;2023-02-03T02:20:50;100067.91;;;-3.18;98.34
59588;BME280;45412;54.472;18.464;2023-02-03T02:33:33;100041.17;;;-3.10;97.93
59588;BME280;45412;54.472;18.464;2023-02-03T02:36:59;100038.23;;;-3.10;97.60
59588;BME280;45412;54.472;18.464;2023-02-03T02:46:46;100032.55;;;-3.20;98.37
59588;BME280;45412;54.472;18.464;2023-02-03T02:49:43;100028.27;;;-3.22;98.28
59588;BME280;45412;54.472;18.464;2023-02-03T02:52:37;100029.66;;;-3.22;98.29
59588;BME280;45412;54.472;18.464;2023-02-03T02:55:30;100024.50;;;-3.25;98.43
59588;BME280;45412;54.472;18.464;2023-02-03T02:58:22;100019.80;;;-3.24;98.44
59588;BME280;45412;54.472;18.464;2023-02-03T03:01:11;100016.64;;;-3.22;98.42
59588;BME280;45412;54.472;18.464;2023-02-03T03:04:04;100012.11;;;-3.21;98.58
59588;BME280;45412;54.472;18.464;2023-02-03T03:06:59;100003.11;;;-3.23;98.45
59588;BME280;45412;54.472;18.464;2023-02-03T03:09:54;99999.54;;;-3.27;98.74
59588;BME280;45412;54.472;18.464;2023-02-03T03:12:52;99989.52;;;-3.29;98.43
59588;BME280;45412;54.472;18.464;2023-02-03T03:15:42;99985.05;;;-3.30;98.99
59588;BME280;45412;54.472;18.464;2023-02-03T03:18:45;99983.38;;;-3.33;99.32
59588;BME280;45412;54.472;18.464;2023-02-03T03:21:59;99982.34;;;-3.33;99.40
59588;BME280;45412;54.472;18.464;2023-02-03T03:25:04;99977.66;;;-3.33;99.29
59588;BME280;45412;54.472;18.464;2023-02-03T03:28:00;99972.27;;;-3.33;99.08
59588;BME280;45412;54.472;18.464;2023-02-03T03:30:49;99973.19;;;-3.28;99.26
59588;BME280;45412;54.472;18.464;2023-02-03T03:33:38;99971.56;;;-3.25;98.91
59588;BME280;45412;54.472;18.464;2023-02-03T03:36:39;99966.20;;;-3.25;98.94
59588;BME280;45412;54.472;18.464;2023-02-03T03:40:07;99970.38;;;-3.27;98.96
59588;BME280;45412;54.472;18.464;2023-02-03T03:45:53;99973.94;;;-3.30;99.45
59588;BME280;45412;54.472;18.464;2023-02-03T03:49:01;99965.78;;;-3.30;99.63
59588;BME280;45412;54.472;18.464;2023-02-03T03:52:01;99960.41;;;-3.30;99.54
59588;BME280;45412;54.472;18.464;2023-02-03T03:54:52;99952.42;;;-3.30;99.71
59588;BME280;45412;54.472;18.464;2023-02-03T03:58:07;99947.34;;;-3.28;99.72
59588;BME280;45412;54.472;18.464;2023-02-03T04:01:02;99947.84;;;-3.27;99.72
59588;BME280;45412;54.472;18.464;2023-02-03T04:04:02;99940.71;;;-3.26;99.77
59588;BME280;45412;54.472;18.464;2023-02-03T04:06:53;99931.52;;;-3.26;99.76
59588;BME280;45412;54.472;18.464;2023-02-03T04:09:41;99923.50;;;-3.25;99.83
59588;BME280;45412;54.472;18.464;2023-02-03T04:12:29;99916.90;;;-3.25;99.56
59588;BME280;45412;54.472;18.464;2023-02-03T04:15:17;99916.66;;;-3.22;99.46
59588;BME280;45412;54.472;18.464;2023-02-03T04:18:05;99915.76;;;-3.20;99.52
59588;BME280;45412;54.472;18.464;2023-02-03T04:20:53;99915.18;;;-3.18;99.47
59588;BME280;45412;54.472;18.464;2023-02-03T04:23:41;99913.09;;;-3.17;99.43
59588;BME280;45412;54.472;18.464;2023-02-03T04:26:30;99908.84;;;-3.14;99.53
59588;BME280;45412;54.472;18.464;2023-02-03T04:29:18;99903.20;;;-3.10;99.21
59588;BME280;45412;54.472;18.464;2023-02-03T04:32:06;99895.80;;;-3.06;98.81
59588;BME280;45412;54.472;18.464;2023-02-03T04:34:53;99897.96;;;-3.02;98.97
59588;BME280;45412;54.472;18.464;2023-02-03T04:37:41;99890.41;;;-2.99;98.52
59588;BME280;45412;54.472;18.464;2023-02-03T04:40:29;99886.02;;;-2.96;98.52
59588;BME280;45412;54.472;18.464;2023-02-03T04:43:17;99876.76;;;-2.94;98.41
59588;BME280;45412;54.472;18.464;2023-02-03T04:46:05;99872.73;;;-2.93;98.27
59588;BME280;45412;54.472;18.464;2023-02-03T04:48:53;99862.09;;;-2.91;98.21
59588;BME280;45412;54.472;18.464;2023-02-03T04:51:40;99854.65;;;-2.92;98.13
59588;BME280;45412;54.472;18.464;2023-02-03T04:54:30;99840.05;;;-2.91;98.11
59588;BME280;45412;54.472;18.464;2023-02-03T04:57:19;99833.77;;;-2.90;98.07
59588;BME280;45412;54.472;18.464;2023-02-03T05:00:08;99829.92;;;-2.89;98.19
59588;BME280;45412;54.472;18.464;2023-02-03T05:02:57;99829.31;;;-2.85;98.15
59588;BME280;45412;54.472;18.464;2023-02-03T05:05:45;99810.17;;;-2.84;98.24
59588;BME280;45412;54.472;18.464;2023-02-03T05:08:33;99808.25;;;-2.77;97.94
59588;BME280;45412;54.472;18.464;2023-02-03T05:11:21;99802.67;;;-2.76;97.73
59588;BME280;45412;54.472;18.464;2023-02-03T05:14:09;99796.55;;;-2.75;97.64
59588;BME280;45412;54.472;18.464;2023-02-03T05:16:57;99792.93;;;-2.76;97.53
59588;BME280;45412;54.472;18.464;2023-02-03T05:19:45;99783.10;;;-2.78;97.46
59588;BME280;45412;54.472;18.464;2023-02-03T05:22:33;99780.52;;;-2.80;97.23
59588;BME280;45412;54.472;18.464;2023-02-03T05:25:22;99772.52;;;-2.80;97.43
59588;BME280;45412;54.472;18.464;2023-02-03T05:28:09;99762.27;;;-2.78;97.44
59588;BME280;45412;54.472;18.464;2023-02-03T05:30:59;99758.19;;;-2.82;97.21
59588;BME280;45412;54.472;18.464;2023-02-03T05:33:47;99758.92;;;-2.77;97.70
59588;BME280;45412;54.472;18.464;2023-02-03T05:36:35;99753.04;;;-2.78;97.53
59588;BME280;45412;54.472;18.464;2023-02-03T05:39:23;99749.95;;;-2.80;97.71
59588;BME280;45412;54.472;18.464;2023-02-03T05:42:11;99739.23;;;-2.81;97.79
59588;BME280;45412;54.472;18.464;2023-02-03T05:44:59;99736.50;;;-2.83;97.73
59588;BME280;45412;54.472;18.464;2023-02-03T05:47:47;99732.20;;;-2.84;98.00
59588;BME280;45412;54.472;18.464;2023-02-03T05:50:36;99726.75;;;-2.88;97.94
59588;BME280;45412;54.472;18.464;2023-02-03T05:53:28;99728.37;;;-2.84;98.36
59588;BME280;45412;54.472;18.464;2023-02-03T05:56:16;99719.51;;;-2.83;98.19
59588;BME280;45412;54.472;18.464;2023-02-03T05:59:04;99715.33;;;-2.82;98.30
59588;BME280;45412;54.472;18.464;2023-02-03T06:01:52;99707.67;;;-2.82;98.35
59588;BME280;45412;54.472;18.464;2023-02-03T06:04:40;99704.22;;;-2.83;98.44
59588;BME280;45412;54.472;18.464;2023-02-03T06:07:28;99696.77;;;-2.84;98.74
59588;BME280;45412;54.472;18.464;2023-02-03T06:10:17;99692.87;;;-2.87;99.04
59588;BME280;45412;54.472;18.464;2023-02-03T06:13:11;99693.91;;;-2.86;99.20
59588;BME280;45412;54.472;18.464;2023-02-03T06:15:59;99683.16;;;-2.87;99.40
59588;BME280;45412;54.472;18.464;2023-02-03T06:18:48;99676.57;;;-2.88;99.49
59588;BME280;45412;54.472;18.464;2023-02-03T06:21:36;99665.21;;;-2.91;99.54
59588;BME280;45412;54.472;18.464;2023-02-03T06:24:24;99663.58;;;-2.89;99.77
59588;BME280;45412;54.472;18.464;2023-02-03T06:27:12;99654.02;;;-2.88;99.90
59588;BME280;45412;54.472;18.464;2023-02-03T06:30:00;99647.04;;;-2.87;100.00
59588;BME280;45412;54.472;18.464;2023-02-03T06:32:51;99645.41;;;-2.85;99.95
59588;BME280;45412;54.472;18.464;2023-02-03T06:35:39;99635.67;;;-2.84;99.96
59588;BME280;45412;54.472;18.464;2023-02-03T06:38:27;99635.77;;;-2.82;99.95
59588;BME280;45412;54.472;18.464;2023-02-03T06:41:15;99624.73;;;-2.79;99.94
59588;BME280;45412;54.472;18.464;2023-02-03T06:44:03;99618.20;;;-2.76;99.98
59588;BME280;45412;54.472;18.464;2023-02-03T06:46:51;99606.80;;;-2.71;99.86
59588;BME280;45412;54.472;18.464;2023-02-03T06:49:42;99602.89;;;-2.68;99.71
59588;BME280;45412;54.472;18.464;2023-02-03T06:52:30;99595.03;;;-2.67;99.61
59588;BME280;45412;54.472;18.464;2023-02-03T06:55:19;99588.61;;;-2.67;99.55
59588;BME280;45412;54.472;18.464;2023-02-03T06:58:07;99585.00;;;-2.68;99.58
59588;BME280;45412;54.472;18.464;2023-02-03T07:00:55;99578.05;;;-2.68;99.71
59588;BME280;45412;54.472;18.464;2023-02-03T07:03:43;99572.56;;;-2.65;99.62
59588;BME280;45412;54.472;18.464;2023-02-03T07:06:31;99559.75;;;-2.60;99.40
59588;BME280;45412;54.472;18.464;2023-02-03T07:09:21;99547.95;;;-2.55;99.12
59588;BME280;45412;54.472;18.464;2023-02-03T07:12:09;99537.44;;;-2.53;99.21
59588;BME280;45412;54.472;18.464;2023-02-03T07:14:57;99525.47;;;-2.48;99.05
59588;BME280;45412;54.472;18.464;2023-02-03T07:17:47;99522.16;;;-2.43;98.97
59588;BME280;45412;54.472;18.464;2023-02-03T07:20:41;99515.41;;;-2.38;98.69
59588;BME280;45412;54.472;18.464;2023-02-03T07:23:29;99513.30;;;-2.37;98.42
59588;BME280;45412;54.472;18.464;2023-02-03T07:26:17;99510.04;;;-2.33;98.42
59588;BME280;45412;54.472;18.464;2023-02-03T07:29:05;99500.02;;;-2.30;98.10
59588;BME280;45412;54.472;18.464;2023-02-03T07:31:53;99496.91;;;-2.25;98.26
59588;BME280;45412;54.472;18.464;2023-02-03T07:34:41;99488.41;;;-2.20;97.97
59588;BME280;45412;54.472;18.464;2023-02-03T07:37:29;99479.30;;;-2.19;97.92
59588;BME280;45412;54.472;18.464;2023-02-03T07:40:18;99481.23;;;-2.09;97.49
59588;BME280;45412;54.472;18.464;2023-02-03T07:43:06;99476.30;;;-2.08;97.25
59588;BME280;45412;54.472;18.464;2023-02-03T07:45:54;99471.10;;;-2.02;97.11
59588;BME280;45412;54.472;18.464;2023-02-03T07:48:43;99466.31;;;-2.00;96.87
59588;BME280;45412;54.472;18.464;2023-02-03T07:51:31;99463.70;;;-2.00;96.62
59588;BME280;45412;54.472;18.464;2023-02-03T07:54:19;99452.44;;;-1.96;96.79
59588;BME280;45412;54.472;18.464;2023-02-03T07:57:07;99448.37;;;-1.89;96.54
59588;BME280;45412;54.472;18.464;2023-02-03T07:59:55;99438.15;;;-1.86;96.22
59588;BME280;45412;54.472;18.464;2023-02-03T08:02:43;99430.64;;;-1.80;96.07
59588;BME280;45412;54.472;18.464;2023-02-03T08:05:31;99421.75;;;-1.75;95.71
59588;BME280;45412;54.472;18.464;2023-02-03T08:08:19;99412.80;;;-1.68;95.71
59588;BME280;45412;54.472;18.464;2023-02-03T08:11:07;99405.72;;;-1.65;95.35
59588;BME280;45412;54.472;18.464;2023-02-03T08:13:56;99391.09;;;-1.64;95.38
59588;BME280;45412;54.472;18.464;2023-02-03T08:16:45;99389.73;;;-1.61;95.20
59588;BME280;45412;54.472;18.464;2023-02-03T08:19:33;99387.00;;;-1.58;95.04
59588;BME280;45412;54.472;18.464;2023-02-03T08:22:22;99384.35;;;-1.57;94.89
59588;BME280;45412;54.472;18.464;2023-02-03T08:25:10;99378.08;;;-1.51;95.12
59588;BME280;45412;54.472;18.464;2023-02-03T08:27:58;99372.59;;;-1.45;94.92
59588;BME280;45412;54.472;18.464;2023-02-03T08:30:46;99370.92;;;-1.43;94.44
59588;BME280;45412;54.472;18.464;2023-02-03T08:33:34;99366.41;;;-1.38;94.51
59588;BME280;45412;54.472;18.464;2023-02-03T08:36:23;99358.52;;;-1.32;94.50
59588;BME280;45412;54.472;18.464;2023-02-03T08:39:13;99353.84;;;-1.29;94.11
59588;BME280;45412;54.472;18.464;2023-02-03T08:42:01;99349.02;;;-1.25;94.05
59588;BME280;45412;54.472;18.464;2023-02-03T08:44:50;99344.48;;;-1.25;93.63
59588;BME280;45412;54.472;18.464;2023-02-03T08:47:39;99333.74;;;-1.22;93.82
59588;BME280;45412;54.472;18.464;2023-02-03T08:50:26;99332.15;;;-1.21;93.80
59588;BME280;45412;54.472;18.464;2023-02-03T08:53:15;99327.85;;;-1.23;93.85
59588;BME280;45412;54.472;18.464;2023-02-03T08:56:08;99323.27;;;-1.22;93.89
59588;BME280;45412;54.472;18.464;2023-02-03T08:58:56;99313.30;;;-1.20;93.94
59588;BME280;45412;54.472;18.464;2023-02-03T09:01:44;99296.64;;;-1.17;93.72
59588;BME280;45412;54.472;18.464;2023-02-03T09:04:35;99286.28;;;-1.15;93.98
59588;BME280;45412;54.472;18.464;2023-02-03T09:07:23;99275.95;;;-1.14;94.08
59588;BME280;45412;54.472;18.464;2023-02-03T09:10:11;99274.23;;;-1.14;94.53
59588;BME280;45412;54.472;18.464;2023-02-03T09:12:59;99268.95;;;-1.13;94.49
59588;BME280;45412;54.472;18.464;2023-02-03T09:15:47;99258.46;;;-1.12;94.88
59588;BME280;45412;54.472;18.464;2023-02-03T09:18:35;99255.70;;;-1.12;94.92
59588;BME280;45412;54.472;18.464;2023-02-03T09:21:23;99246.98;;;-1.08;95.27
59588;BME280;45412;54.472;18.464;2023-02-03T09:24:27;99234.63;;;-1.08;95.17
59588;BME280;45412;54.472;18.464;2023-02-03T09:27:15;99227.82;;;-1.08;95.26
59588;BME280;45412;54.472;18.464;2023-02-03T09:30:03;99217.89;;;-1.08;95.55
59588;BME280;45412;54.472;18.464;2023-02-03T09:32:52;99209.26;;;-1.05;95.64
59588;BME280;45412;54.472;18.464;2023-02-03T09:35:54;99202.30;;;-0.97;95.69
59588;BME280;45412;54.472;18.464;2023-02-03T09:38:43;99196.88;;;-0.93;95.33
59588;BME280;45412;54.472;18.464;2023-02-03T09:45:32;99166.10;;;-0.86;95.09
59588;BME280;45412;54.472;18.464;2023-02-03T09:48:23;99156.40;;;-0.83;95.13
59588;BME280;45412;54.472;18.464;2023-02-03T09:51:25;99149.86;;;-0.85;95.11
59588;BME280;45412;54.472;18.464;2023-02-03T09:54:22;99141.90;;;-0.86;94.96
59588;BME280;45412;54.472;18.464;2023-02-03T09:57:25;99138.05;;;-0.86;95.12
59588;BME280;45412;54.472;18.464;2023-02-03T10:00:25;99119.85;;;-0.88;94.91
59588;BME280;45412;54.472;18.464;2023-02-03T10:06:37;99092.91;;;-0.89;94.88
59588;BME280;45412;54.472;18.464;2023-02-03T10:09:54;99084.30;;;-0.88;95.30
59588;BME280;45412;54.472;18.464;2023-02-03T10:13:10;99071.91;;;-0.83;95.41
59588;BME280;45412;54.472;18.464;2023-02-03T10:19:53;99060.96;;;-0.80;95.66
59588;BME280;45412;54.472;18.464;2023-02-03T10:22:49;99050.95;;;-0.82;95.62
59588;BME280;45412;54.472;18.464;2023-02-03T10:25:46;99041.80;;;-0.80;95.93
59588;BME280;45412;54.472;18.464;2023-02-03T10:28:52;99028.26;;;-0.88;96.19
59588;BME280;45412;54.472;18.464;2023-02-03T10:31:41;99019.69;;;-0.88;96.52
59588;BME280;45412;54.472;18.464;2023-02-03T10:34:31;99010.31;;;-0.88;96.77
59588;BME280;45412;54.472;18.464;2023-02-03T10:37:37;99004.75;;;-0.92;96.78
59588;BME280;45412;54.472;18.464;2023-02-03T10:40:28;98997.99;;;-0.90;96.87
59588;BME280;45412;54.472;18.464;2023-02-03T10:43:16;98989.16;;;-0.90;96.68
59588;BME280;45412;54.472;18.464;2023-02-03T10:46:33;98966.04;;;-0.95;96.48
59588;BME280;45412;54.472;18.464;2023-02-03T10:49:25;98960.41;;;-0.97;96.90
59588;BME280;45412;54.472;18.464;2023-02-03T10:52:34;98943.09;;;-0.96;97.14
59588;BME280;45412;54.472;18.464;2023-02-03T10:58:26;98917.86;;;-0.96;97.36
59588;BME280;45412;54.472;18.464;2023-02-03T11:01:18;98912.61;;;-0.99;97.71
59588;BME280;45412;54.472;18.464;2023-02-03T11:04:28;98895.96;;;-0.97;97.65
59588;BME280;45412;54.472;18.464;2023-02-03T11:07:25;98879.60;;;-0.97;97.91
59588;BME280;45412;54.472;18.464;2023-02-03T11:10:27;98876.09;;;-0.96;98.15
59588;BME280;45412;54.472;18.464;2023-02-03T11:13:25;98866.00;;;-0.93;98.14
59588;BME280;45412;54.472;18.464;2023-02-03T11:16:15;98847.49;;;-0.85;97.91
59588;BME280;45412;54.472;18.464;2023-02-03T11:19:12;98852.40;;;-0.79;97.72
59588;BME280;45412;54.472;18.464;2023-02-03T11:22:04;98839.73;;;-0.80;97.20
59588;BME280;45412;54.472;18.464;2023-02-03T11:24:52;98831.11;;;-0.81;97.10
59588;BME280;45412;54.472;18.464;2023-02-03T11:27:40;98825.61;;;-0.80;97.24
59588;BME280;45412;54.472;18.464;2023-02-03T11:30:28;98821.02;;;-0.78;97.34
59588;BME280;45412;54.472;18.464;2023-02-03T11:33:19;98818.49;;;-0.84;97.13
59588;BME280;45412;54.472;18.464;2023-02-03T11:36:11;98804.24;;;-0.87;97.52
59588;BME280;45412;54.472;18.464;2023-02-03T11:39:29;98801.65;;;-0.91;98.13
59588;BME280;45412;54.472;18.464;2023-02-03T11:42:23;98797.66;;;-0.95;98.46
59588;BME280;45412;54.472;18.464;2023-02-03T11:51:21;98781.02;;;-1.10;98.96
59588;BME280;45412;54.472;18.464;2023-02-03T11:54:54;98779.88;;;-1.12;99.31
59588;BME280;45412;54.472;18.464;2023-02-03T12:05:32;98756.09;;;-1.24;100.00
59588;BME280;45412;54.472;18.464;2023-02-03T12:08:59;98759.77;;;-1.28;100.00
59588;BME280;45412;54.472;18.464;2023-02-03T12:15:25;98754.64;;;-1.29;100.00
59588;BME280;45412;54.472;18.464;2023-02-03T12:18:23;98753.96;;;-1.26;100.00
59588;BME280;45412;54.472;18.464;2023-02-03T12:21:43;98746.20;;;-1.27;100.00
59588;BME280;45412;54.472;18.464;2023-02-03T12:39:11;98739.45;;;-1.35;100.00
59588;BME280;45412;54.472;18.464;2023-02-03T12:42:35;98744.35;;;-1.36;100.00
59588;BME280;45412;54.472;18.464;2023-02-03T12:45:30;98741.33;;;-1.34;100.00
59588;BME280;45412;54.472;18.464;2023-02-03T12:48:49;98747.46;;;-1.32;100.00
59588;BME280;45412;54.472;18.464;2023-02-03T12:51:53;98742.54;;;-1.31;100.00
59588;BME280;45412;54.472;18.464;2023-02-03T12:55:00;98737.44;;;-1.33;100.00
59588;BME280;45412;54.472;18.464;2023-02-03T12:57:59;98738.39;;;-1.35;100.00
59588;BME280;45412;54.472;18.464;2023-02-03T13:01:07;98728.34;;;-1.33;100.00
59588;BME280;45412;54.472;18.464;2023-02-03T13:04:14;98730.98;;;-1.33;100.00
59588;BME280;45412;54.472;18.464;2023-02-03T13:08:10;98727.52;;;-1.30;100.00
59588;BME280;45412;54.472;18.464;2023-02-03T13:10:37;98712.73;;;-1.31;100.00
59588;BME280;45412;54.472;18.464;2023-02-03T13:13:37;98710.29;;;-1.23;100.00
59588;BME280;45412;54.472;18.464;2023-02-03T13:16:36;98710.98;;;-1.27;100.00
59588;BME280;45412;54.472;18.464;2023-02-03T13:19:37;98714.55;;;-1.22;100.00
59588;BME280;45412;54.472;18.464;2023-02-03T13:22:27;98709.83;;;-1.21;100.00
59588;BME280;45412;54.472;18.464;2023-02-03T13:28:44;98706.75;;;-1.15;100.00
59588;BME280;45412;54.472;18.464;2023-02-03T13:41:46;98698.58;;;-1.15;100.00
59588;BME280;45412;54.472;18.464;2023-02-03T13:44:39;98695.11;;;-1.19;100.00
59588;BME280;45412;54.472;18.464;2023-02-03T13:47:29;98693.28;;;-1.17;100.00
59588;BME280;45412;54.472;18.464;2023-02-03T13:50:28;98685.81;;;-1.17;100.00
59588;BME280;45412;54.472;18.464;2023-02-03T13:53:21;98693.95;;;-1.17;100.00
59588;BME280;45412;54.472;18.464;2023-02-03T13:56:23;98684.55;;;-1.20;100.00
59588;BME280;45412;54.472;18.464;2023-02-03T14:05:43;98690.38;;;-1.18;100.00
59588;BME280;45412;54.472;18.464;2023-02-03T14:23:39;98674.61;;;-1.23;100.00
59588;BME280;45412;54.472;18.464;2023-02-03T14:26:35;98681.42;;;-1.30;100.00
59588;BME280;45412;54.472;18.464;2023-02-03T14:29:35;98671.69;;;-1.37;100.00
59588;BME280;45412;54.472;18.464;2023-02-03T14:32:47;98689.63;;;-1.31;100.00
59588;BME280;45412;54.472;18.464;2023-02-03T14:35:38;98699.15;;;-1.33;100.00
59588;BME280;45412;54.472;18.464;2023-02-03T14:38:31;98705.86;;;-1.35;100.00
59588;BME280;45412;54.472;18.464;2023-02-03T14:41:40;98696.30;;;-1.39;100.00
59588;BME280;45412;54.472;18.464;2023-02-03T14:57:58;98749.32;;;-1.38;100.00
59588;BME280;45412;54.472;18.464;2023-02-03T15:00:47;98751.18;;;-1.37;100.00
59588;BME280;45412;54.472;18.464;2023-02-03T15:03:36;98757.11;;;-1.41;100.00
59588;BME280;45412;54.472;18.464;2023-02-03T15:06:47;98750.75;;;-1.39;100.00
59588;BME280;45412;54.472;18.464;2023-02-03T15:09:44;98763.82;;;-1.39;100.00
59588;BME280;45412;54.472;18.464;2023-02-03T15:12:36;98766.30;;;-1.40;100.00
59588;BME280;45412;54.472;18.464;2023-02-03T15:15:31;98773.85;;;-1.38;100.00
59588;BME280;45412;54.472;18.464;2023-02-03T15:18:36;98780.02;;;-1.36;100.00
59588;BME280;45412;54.472;18.464;2023-02-03T15:21:26;98780.36;;;-1.35;100.00
59588;BME280;45412;54.472;18.464;2023-02-03T15:24:17;98784.96;;;-1.34;100.00
59588;BME280;45412;54.472;18.464;2023-02-03T15:27:23;98792.09;;;-1.37;100.00
59588;BME280;45412;54.472;18.464;2023-02-03T15:30:16;98790.51;;;-1.41;100.00
59588;BME280;45412;54.472;18.464;2023-02-03T15:33:14;98793.66;;;-1.38;100.00
59588;BME280;45412;54.472;18.464;2023-02-03T15:36:10;98796.69;;;-1.39;100.00
59588;BME280;45412;54.472;18.464;2023-02-03T15:39:16;98791.48;;;-1.40;100.00
59588;BME280;45412;54.472;18.464;2023-02-03T15:42:34;98801.48;;;-1.41;100.00
59588;BME280;45412;54.472;18.464;2023-02-03T15:45:38;98819.05;;;-1.41;100.00
59588;BME280;45412;54.472;18.464;2023-02-03T15:48:44;98822.15;;;-1.40;100.00
59588;BME280;45412;54.472;18.464;2023-02-03T15:51:46;98824.10;;;-1.41;100.00
59588;BME280;45412;54.472;18.464;2023-02-03T15:54:40;98822.92;;;-1.41;100.00
59588;BME280;45412;54.472;18.464;2023-02-03T15:57:32;98825.98;;;-1.44;100.00
59588;BME280;45412;54.472;18.464;2023-02-03T16:00:33;98831.36;;;-1.47;100.00
59588;BME280;45412;54.472;18.464;2023-02-03T16:03:34;98825.84;;;-1.48;100.00
59588;BME280;45412;54.472;18.464;2023-02-03T16:06:32;98825.88;;;-1.49;100.00
59588;BME280;45412;54.472;18.464;2023-02-03T16:09:38;98832.98;;;-1.48;100.00
59588;BME280;45412;54.472;18.464;2023-02-03T16:12:32;98846.36;;;-1.47;100.00
59588;BME280;45412;54.472;18.464;2023-02-03T16:15:22;98854.80;;;-1.46;100.00
59588;BME280;45412;54.472;18.464;2023-02-03T16:18:16;98864.06;;;-1.43;100.00
59588;BME280;45412;54.472;18.464;2023-02-03T16:21:05;98876.61;;;-1.43;100.00
59588;BME280;45412;54.472;18.464;2023-02-03T16:23:53;98883.29;;;-1.41;100.00
59588;BME280;45412;54.472;18.464;2023-02-03T16:26:41;98889.73;;;-1.41;100.00
59588;BME280;45412;54.472;18.464;2023-02-03T16:29:28;98906.17;;;-1.40;100.00
59588;BME280;45412;54.472;18.464;2023-02-03T16:32:35;98923.59;;;-1.40;100.00
59588;BME280;45412;54.472;18.464;2023-02-03T16:35:42;98934.31;;;-1.39;100.00
59588;BME280;45412;54.472;18.464;2023-02-03T16:38:50;98941.88;;;-1.37;100.00
59588;BME280;45412;54.472;18.464;2023-02-03T16:41:58;98943.02;;;-1.35;100.00
59588;BME280;45412;54.472;18.464;2023-02-03T16:45:17;98952.71;;;-1.33;100.00
59588;BME280;45412;54.472;18.464;2023-02-03T16:48:23;98958.00;;;-1.31;100.00
59588;BME280;45412;54.472;18.464;2023-02-03T16:51:41;98955.52;;;-1.30;100.00
59588;BME280;45412;54.472;18.464;2023-02-03T16:54:30;98956.98;;;-1.28;100.00
59588;BME280;45412;54.472;18.464;2023-02-03T16:57:19;98964.80;;;-1.28;100.00
59588;BME280;45412;54.472;18.464;2023-02-03T17:00:11;98957.52;;;-1.28;100.00